Time;durP1;ratioP1;P1;durP2;ratioP2;P2;SDS_P1;SDS_P2;PMS_P1;PMS_P2;Temp;Humidity;BMP_temperature;BMP_pressure;BME280_temperature;BME280_humidity;BME280_pressure;Samples;Min_cycle;Max_cycle;Signal;HPM_P1;HPM_P2
2022/03/05 00:03:48;;;;;;;20.52;11.27;;;;;;;4.61;55.97;100082.13;7710675;32;37470;-73
2022/03/05 00:08:06;;;;;;;20.95;11.23;;;;;;;4.70;46.10;100079.94;7711781;32;39146;-73
2022/03/05 00:12:22;;;;;;;18.62;10.23;;;;;;;4.45;45.85;100077.28;7705839;32;40748;-73
2022/03/05 00:16:39;;;;;;;21.75;11.75;;;;;;;4.42;45.99;100075.88;7684878;32;38193;-74
2022/03/05 00:20:55;;;;;;;22.08;11.85;;;;;;;4.54;45.71;100080.56;7684953;32;37007;-74
2022/03/05 00:25:12;;;;;;;18.80;11.27;;;;;;;4.38;45.41;100082.78;7685008;32;39276;-74
2022/03/05 00:29:28;;;;;;;26.35;11.88;;;;;;;4.51;45.14;100074.53;7684202;32;40965;-74
2022/03/05 00:33:44;;;;;;;27.67;13.32;;;;;;;4.49;45.13;100078.50;7684765;32;37960;-73
2022/03/05 00:38:00;;;;;;;22.05;12.32;;;;;;;4.50;44.61;100075.59;7664807;32;37144;-74
2022/03/05 00:42:16;;;;;;;26.77;13.48;;;;;;;4.38;44.68;100073.84;7667497;32;40021;-74
2022/03/05 00:46:32;;;;;;;28.17;13.57;;;;;;;4.59;44.91;100072.56;7711206;32;41221;-73
2022/03/05 00:50:49;;;;;;;26.50;12.07;;;;;;;4.61;45.28;100074.00;7710991;32;38581;-74
2022/03/05 00:55:06;;;;;;;26.48;13.62;;;;;;;4.67;46.05;100067.72;7711271;32;37771;-74
2022/03/05 00:59:22;;;;;;;26.48;13.23;;;;;;;4.38;47.08;100069.28;7698839;32;39855;-73
2022/03/05 01:03:38;;;;;;;28.40;12.82;;;;;;;4.47;46.82;100076.03;7684265;32;40777;-73
2022/03/05 01:07:55;;;;;;;31.70;15.05;;;;;;;4.32;46.21;100080.97;7684278;32;38035;-74
2022/03/05 01:12:11;;;;;;;26.73;14.00;;;;;;;4.50;46.09;100074.75;7685065;32;37816;-74
2022/03/05 01:16:27;;;;;;;18.60;10.50;;;;;;;4.35;46.41;100082.38;7684158;32;39806;-74
2022/03/05 01:20:43;;;;;;;22.02;11.40;;;;;;;4.52;45.66;100078.06;7684070;32;40024;-74
2022/03/05 01:25:00;;;;;;;21.10;11.10;;;;;;;4.51;45.79;100085.31;7683876;32;38837;-74
2022/03/05 01:29:16;;;;;;;19.15;10.35;;;;;;;4.58;45.42;100082.56;7683831;32;37572;-74
2022/03/05 01:33:32;;;;;;;20.12;10.35;;;;;;;4.22;46.78;100086.88;7683755;32;39495;-74
2022/03/05 01:37:48;;;;;;;18.37;10.57;;;;;;;4.21;46.78;100087.09;7702057;32;39890;-73
2022/03/05 01:42:05;;;;;;;20.35;10.82;;;;;;;4.08;46.44;100088.88;7708827;32;38762;-73
2022/03/05 01:46:35;;;;;;;18.20;10.95;;;;;;;4.37;45.67;100091.94;7710168;32;36942;-73
2022/03/05 01:50:51;;;;;;;17.58;10.38;;;;;;;4.10;46.31;100092.16;7709702;32;39440;-73
2022/03/05 01:55:08;;;;;;;25.55;11.40;;;;;;;4.07;46.82;100089.94;7709813;32;40841;-73
2022/03/05 01:59:24;;;;;;;19.77;11.52;;;;;;;4.03;47.16;100096.81;7708314;32;38707;-73
2022/03/05 02:03:41;;;;;;;20.65;11.05;;;;;;;4.19;47.04;100100.00;7708584;32;37067;-74
2022/03/05 02:07:58;;;;;;;21.35;11.02;;;;;;;4.17;47.03;100096.69;7709488;32;39837;-73
2022/03/05 02:12:18;;;;;;;19.45;11.05;;;;;;;4.01;47.71;100093.50;7702597;32;39958;-73
2022/03/05 02:16:34;;;;;;;24.60;11.85;;;;;;;4.00;48.36;100105.37;7682670;32;37926;-73
2022/03/05 02:20:52;;;;;;;22.13;11.57;;;;;;;4.02;48.06;100091.63;7682784;32;37000;-73
2022/03/05 02:25:09;;;;;;;22.23;12.32;;;;;;;4.16;47.70;100097.72;7683132;32;39985;-73
2022/03/05 02:29:25;;;;;;;23.58;12.02;;;;;;;4.12;47.47;100095.50;7689983;32;39672;-73
2022/03/05 02:33:43;;;;;;;22.13;11.40;;;;;;;4.07;47.67;100103.44;7709398;32;38598;-73
2022/03/05 02:37:59;;;;;;;19.50;10.98;;;;;;;3.79;48.03;100105.72;7687238;32;37981;-73
2022/03/05 02:42:17;;;;;;;20.83;11.68;;;;;;;3.79;48.02;100108.44;7682848;32;39527;-73
2022/03/05 02:46:34;;;;;;;21.77;11.25;;;;;;;3.59;48.73;100101.31;7682262;32;40198;-73
2022/03/05 02:50:51;;;;;;;22.33;12.63;;;;;;;3.70;48.31;100099.78;7681969;32;38683;-73
2022/03/05 02:55:07;;;;;;;25.95;14.07;;;;;;;3.78;48.15;100104.91;7685855;32;37238;-73
2022/03/05 02:59:25;;;;;;;22.75;11.88;;;;;;;3.67;48.54;100103.72;7692740;32;40207;-73
2022/03/05 03:03:41;;;;;;;24.98;12.90;;;;;;;3.03;49.43;100108.25;7712428;32;39730;-73
2022/03/05 03:07:57;;;;;;;24.63;13.18;;;;;;;3.60;48.08;100094.87;7712201;32;38666;-73
2022/03/05 03:12:13;;;;;;;25.00;13.10;;;;;;;3.24;48.53;100099.03;7705136;32;37387;-72
2022/03/05 03:16:30;;;;;;;25.40;13.50;;;;;;;3.56;47.59;100099.06;7685695;32;39350;-73
2022/03/05 03:20:46;;;;;;;24.08;12.95;;;;;;;3.56;47.63;100096.38;7693375;32;39882;-73
2022/03/05 03:25:02;;;;;;;21.92;12.23;;;;;;;3.56;48.10;100090.97;7711957;32;38643;-72
2022/03/05 03:29:18;;;;;;;24.12;14.02;;;;;;;3.61;47.95;100096.53;7705123;32;37242;-73
2022/03/05 03:33:35;;;;;;;22.23;12.77;;;;;;;3.63;47.91;100094.44;7685418;32;39168;-72
2022/03/05 03:37:51;;;;;;;23.73;12.63;;;;;;;3.70;47.54;100097.91;7685349;32;40548;-73
2022/03/05 03:42:07;;;;;;;22.62;11.98;;;;;;;3.99;47.28;100106.41;7691595;32;37906;-73
2022/03/05 03:46:23;;;;;;;24.83;12.52;;;;;;;3.41;48.87;100098.53;7711870;32;37266;-73
2022/03/05 03:50:39;;;;;;;22.65;11.98;;;;;;;3.50;48.96;100108.00;7711770;32;40118;-72
2022/03/05 03:54:56;;;;;;;23.75;12.37;;;;;;;3.84;48.04;100103.22;7711805;32;40796;-73
2022/03/05 03:59:12;;;;;;;21.62;11.48;;;;;;;3.74;47.49;100101.00;7710298;32;37931;-73
2022/03/05 04:03:28;;;;;;;20.23;11.18;;;;;;;3.70;48.01;100097.91;7710581;32;37271;-72
2022/03/05 04:12:19;;;;;;;20.40;11.10;;;;;;;3.81;47.22;100100.94;7693155;32;39690;-72
2022/03/05 04:16:35;;;;;;;22.45;11.60;;;;;;;3.75;47.62;100108.03;7711408;32;37741;-72
2022/03/05 04:20:51;;;;;;;21.87;11.65;;;;;;;3.87;47.79;100105.47;7711565;32;37490;-73
2022/03/05 04:25:08;;;;;;;21.23;11.43;;;;;;;4.13;46.89;100107.09;7711381;32;39380;-73
2022/03/05 04:29:25;;;;;;;20.88;11.48;;;;;;;4.04;47.15;100114.66;7702373;32;40824;-72
2022/03/05 04:33:41;;;;;;;21.42;11.52;;;;;;;3.92;46.97;100111.03;7684862;32;37629;-72
2022/03/05 04:37:57;;;;;;;21.15;11.90;;;;;;;4.14;46.20;100114.16;7684860;32;36923;-73
2022/03/05 04:42:13;;;;;;;23.52;11.68;;;;;;;3.59;46.88;100114.81;7685198;32;39431;-73
2022/03/05 04:46:29;;;;;;;21.33;11.45;;;;;;;3.76;46.65;100118.63;7706928;32;40737;-73
2022/03/05 04:50:48;;;;;;;25.75;13.32;;;;;;;3.66;47.29;100125.53;7710840;32;38112;-73
2022/03/05 04:55:06;;;;;;;21.60;11.95;;;;;;;3.69;47.32;100123.25;7711207;32;37998;-73
2022/03/05 04:59:22;;;;;;;22.08;12.98;;;;;;;3.66;47.67;100128.25;7700531;32;39353;-73
2022/03/05 05:03:38;;;;;;;23.50;12.90;;;;;;;3.61;47.75;100120.81;7684265;32;39980;-73
2022/03/05 05:07:55;;;;;;;24.75;13.30;;;;;;;3.68;47.58;100126.16;7684326;32;37878;-73
2022/03/05 05:12:11;;;;;;;24.98;13.68;;;;;;;3.49;48.26;100127.94;7692335;32;36967;-73
2022/03/05 05:16:27;;;;;;;24.45;13.40;;;;;;;3.45;48.43;100132.09;7689376;32;39260;-73
2022/03/05 05:20:43;;;;;;;23.20;13.35;;;;;;;3.34;48.56;100125.53;7683198;32;40055;-73
2022/03/05 05:25:03;;;;;;;26.37;14.30;;;;;;;3.42;48.22;100138.75;7683800;32;38487;-73
2022/03/05 05:29:19;;;;;;;25.80;13.60;;;;;;;3.31;48.99;100132.19;7684047;32;37329;-73
2022/03/05 05:33:54;;;;;;;32.85;14.65;;;;;;;3.47;48.68;100135.41;7682880;32;40021;-73
2022/03/05 05:38:10;;;;;;;28.17;13.98;;;;;;;3.46;48.88;100134.56;7682563;32;40820;-73
2022/03/05 05:42:26;;;;;;;27.75;13.60;;;;;;;3.43;48.90;100153.03;7682981;32;37954;-73
2022/03/05 05:46:42;;;;;;;28.83;14.15;;;;;;;3.50;48.65;100145.75;7682705;32;38285;-74
2022/03/05 05:50:58;;;;;;;31.15;14.80;;;;;;;3.39;49.13;100144.56;7683336;32;39603;-73
2022/03/05 05:55:14;;;;;;;26.58;14.15;;;;;;;3.27;49.27;100155.19;7683344;32;40001;-73
2022/03/05 05:59:31;;;;;;;27.33;13.85;;;;;;;3.27;49.47;100149.00;7683187;32;39174;-73
2022/03/05 06:03:48;;;;;;;29.37;14.57;;;;;;;3.49;49.25;100154.88;7682821;32;37279;-73
2022/03/05 06:08:05;;;;;;;27.90;13.88;;;;;;;3.47;49.48;100155.09;7683019;32;38558;-73
2022/03/05 06:12:21;;;;;;;27.40;14.25;;;;;;;3.48;49.70;100167.53;7693027;32;40027;-72
2022/03/05 06:16:38;;;;;;;27.40;13.62;;;;;;;3.40;50.00;100162.41;7709827;32;36235;-73
2022/03/05 06:20:54;;;;;;;30.00;15.60;;;;;;;3.41;49.63;100174.00;7709363;32;37984;-72
2022/03/05 06:25:10;;;;;;;26.85;13.90;;;;;;;3.58;49.35;100175.16;7709137;32;40050;-73
2022/03/05 06:29:26;;;;;;;29.73;14.60;;;;;;;3.66;49.60;100169.50;7712451;32;40723;-73
2022/03/05 06:33:43;;;;;;;30.00;15.20;;;;;;;3.70;49.60;100172.59;7712798;32;37797;-73
2022/03/05 06:37:59;;;;;;;27.02;15.02;;;;;;;3.78;49.31;100184.97;7712739;32;36939;-74
2022/03/05 06:42:15;;;;;;;26.85;14.87;;;;;;;3.81;48.93;100184.53;7704265;32;39725;-73
2022/03/05 06:46:31;;;;;;;28.27;15.52;;;;;;;3.87;48.99;100178.28;7709275;32;39954;-72
2022/03/05 06:50:47;;;;;;;26.17;14.43;;;;;;;4.02;49.10;100176.13;7687866;32;38094;-73
2022/03/05 06:55:04;;;;;;;26.20;13.23;;;;;;;4.12;48.71;100181.00;7684883;32;37528;-73
2022/03/05 06:59:21;;;;;;;26.92;14.38;;;;;;;3.76;49.55;100180.66;7684823;32;39384;-73
2022/03/05 07:03:37;;;;;;;24.90;13.40;;;;;;;3.97;49.19;100185.87;7685309;32;40665;-73
2022/03/05 07:07:53;;;;;;;26.37;13.95;;;;;;;3.98;48.98;100184.84;7685454;32;37579;-73
2022/03/05 07:12:10;;;;;;;27.33;13.70;;;;;;;4.16;48.62;100181.38;7683686;32;37437;-73
2022/03/05 07:16:26;;;;;;;25.55;14.23;;;;;;;4.19;48.19;100180.94;7685689;32;40052;-72
2022/03/05 07:20:43;;;;;;;28.80;15.27;;;;;;;3.84;49.00;100182.25;7685186;32;39993;-73
2022/03/05 07:24:59;;;;;;;27.90;16.35;;;;;;;4.09;48.69;100193.06;7690244;32;37671;-73
2022/03/05 07:29:15;;;;;;;29.80;14.73;;;;;;;4.31;48.59;100189.97;7711649;32;37870;-73
2022/03/05 07:33:31;;;;;;;38.15;20.80;;;;;;;4.32;48.55;100195.16;7711761;32;38989;-72
2022/03/05 07:37:47;;;;;;;35.97;17.70;;;;;;;4.39;48.76;100197.00;7711957;32;39585;-71
2022/03/05 07:42:06;;;;;;;24.58;13.62;;;;;;;4.20;49.68;100196.09;7711915;32;38825;-72
2022/03/05 07:46:23;;;;;;;31.60;17.05;;;;;;;4.93;46.06;100200.00;7711923;32;36915;-74
2022/03/05 07:50:39;;;;;;;34.15;15.15;;;;;;;4.95;49.13;100200.59;7711762;32;39020;-73
2022/03/05 07:54:55;;;;;;;26.42;13.85;;;;;;;4.75;46.38;100201.62;7711751;32;40506;-73
2022/03/05 07:59:11;;;;;;;25.55;12.02;;;;;;;5.21;44.85;100216.53;7711507;32;37959;-74
2022/03/05 08:03:27;;;;;;;23.20;12.15;;;;;;;5.36;45.09;100209.87;7711615;32;37262;-72
2022/03/05 08:07:44;;;;;;;20.95;11.70;;;;;;;5.46;44.31;100213.69;7709506;32;39429;-72
2022/03/05 08:12:00;;;;;;;19.92;10.13;;;;;;;5.69;43.69;100214.03;7684015;32;39930;-72
2022/03/05 08:16:16;;;;;;;22.13;11.45;;;;;;;5.72;43.25;100216.28;7684840;32;37932;-72
2022/03/05 08:20:32;;;;;;;18.83;10.07;;;;;;;6.16;42.19;100211.53;7684322;32;38141;-73
2022/03/05 08:24:48;;;;;;;18.87;9.93;;;;;;;6.03;42.18;100212.53;7674135;32;41011;-73
2022/03/05 08:29:05;;;;;;;23.50;10.25;;;;;;;6.31;41.52;100220.03;7683043;32;40195;-73
2022/03/05 08:33:21;;;;;;;19.67;9.98;;;;;;;6.33;41.39;100222.47;7683357;32;38059;-73
2022/03/05 08:37:38;;;;;;;20.30;10.00;;;;;;;6.37;41.06;100229.91;7681631;32;37633;-73
2022/03/05 08:41:54;;;;;;;16.87;9.23;;;;;;;6.47;39.93;100223.09;7682146;32;39372;-73
2022/03/05 08:46:10;;;;;;;17.50;9.10;;;;;;;6.80;39.17;100232.56;7683443;32;40769;-73
2022/03/05 08:50:27;;;;;;;18.25;9.18;;;;;;;6.63;38.01;100232.41;7680620;32;37757;-73
2022/03/05 08:54:43;;;;;;;16.58;8.93;;;;;;;6.79;36.67;100231.69;7683431;32;37662;-73
2022/03/05 08:58:59;;;;;;;15.27;8.65;;;;;;;6.69;37.21;100237.72;7683230;32;38985;-73
2022/03/05 09:03:17;;;;;;;14.23;8.32;;;;;;;6.82;35.68;100235.84;7682887;32;40057;-73
2022/03/05 09:07:33;;;;;;;16.33;7.85;;;;;;;7.20;36.40;100231.78;7683385;32;37982;-74
2022/03/05 09:11:49;;;;;;;22.27;8.57;;;;;;;7.18;35.15;100239.34;7681310;32;37200;-74
2022/03/05 09:16:05;;;;;;;20.30;11.18;;;;;;;7.46;34.68;100231.25;7682972;32;39910;-73
2022/03/05 09:20:22;;;;;;;24.20;12.75;;;;;;;7.15;38.58;100230.59;7682926;32;40734;-74
2022/03/05 09:24:38;;;;;;;25.37;13.90;;;;;;;6.95;40.17;100225.59;7682783;32;37889;-73
2022/03/05 09:28:54;;;;;;;22.50;12.63;;;;;;;6.79;41.46;100228.19;7682851;32;37247;-72
2022/03/05 09:33:11;;;;;;;23.67;12.55;;;;;;;6.86;40.12;100223.47;7681577;32;39299;-72
2022/03/05 09:37:29;;;;;;;23.10;12.20;;;;;;;6.67;40.21;100218.16;7683868;32;39570;-73
2022/03/05 09:41:46;;;;;;;23.90;11.88;;;;;;;6.57;40.44;100220.63;7683691;32;38669;-72
2022/03/05 09:46:02;;;;;;;25.85;12.55;;;;;;;7.06;39.69;100218.50;7683661;32;37190;-73
2022/03/05 09:50:19;;;;;;;21.08;11.05;;;;;;;7.40;38.28;100210.53;7683465;32;39493;-74
2022/03/05 09:54:36;;;;;;;24.85;12.63;;;;;;;7.26;37.67;100199.13;7683493;32;39604;-73
2022/03/05 09:58:52;;;;;;;31.77;12.80;;;;;;;7.62;37.25;100210.69;7683139;32;37937;-74
2022/03/05 10:03:14;;;;;;;24.70;12.77;;;;;;;8.18;37.56;100215.50;7685262;32;38204;-73
2022/03/05 10:07:30;;;;;;;17.45;9.52;;;;;;;8.35;37.06;100204.62;7685434;32;40075;-74
2022/03/05 10:11:46;;;;;;;19.87;10.50;;;;;;;8.93;34.54;100189.75;7686225;32;40691;-74
2022/03/05 10:16:05;;;;;;;16.62;9.27;;;;;;;8.81;32.53;100189.03;7686289;32;38628;-74
2022/03/05 10:20:28;;;;;;;14.30;7.60;;;;;;;9.78;31.59;100187.50;7686783;32;38169;-74
2022/03/05 10:24:44;;;;;;;12.85;6.18;;;;;;;10.58;30.14;100183.31;7685192;32;39261;-74
2022/03/05 10:29:17;;;;;;;10.73;6.07;;;;;;;10.64;26.17;100179.50;7686222;32;40826;-74
2022/03/05 10:33:43;;;;;;;16.50;7.07;;;;;;;11.15;26.28;100179.81;7685325;32;37902;-74
2022/03/05 10:38:00;;;;;;;13.05;6.37;;;;;;;11.82;26.27;100188.22;7686385;32;37144;-75
2022/03/05 10:42:21;;;;;;;17.08;6.95;;;;;;;12.28;25.36;100185.56;7686121;32;39275;-74
2022/03/05 10:46:46;;;;;;;11.85;5.72;;;;;;;12.47;24.02;100185.00;7686184;32;40295;-74
2022/03/05 10:51:04;;;;;;;11.65;6.25;;;;;;;12.34;24.47;100181.72;7686376;32;38808;-73
2022/03/05 10:55:25;;;;;;;11.30;6.20;;;;;;;11.94;25.69;100177.06;7686008;32;37169;-74
2022/03/05 10:59:47;;;;;;;11.80;6.07;;;;;;;12.07;25.11;100178.44;7686123;32;39450;-75
2022/03/05 11:04:04;;;;;;;21.87;7.50;;;;;;;11.89;24.64;100169.66;7685858;32;39860;-74
2022/03/05 11:08:21;;;;;;;12.45;6.75;;;;;;;11.46;25.45;100169.00;7685864;32;38176;-74
2022/03/05 11:12:39;;;;;;;13.07;7.12;;;;;;;11.22;26.07;100164.00;7685679;32;36864;-74
2022/03/05 11:16:56;;;;;;;17.37;7.80;;;;;;;10.77;25.60;100165.44;7686309;32;37140;-75
2022/03/05 11:21:13;;;;;;;14.35;6.93;;;;;;;11.05;25.59;100157.94;7685640;32;40022;-75
2022/03/05 11:25:31;;;;;;;12.65;6.57;;;;;;;11.12;26.42;100155.78;7685470;32;38475;-75
2022/03/05 11:30:03;;;;;;;14.18;7.03;;;;;;;11.87;24.97;100143.72;7685563;32;39098;-75
2022/03/05 11:34:23;;;;;;;12.60;6.37;;;;;;;11.42;24.66;100146.06;7685611;32;40102;-73
2022/03/05 11:38:39;;;;;;;12.73;6.07;;;;;;;10.93;25.17;100149.97;7685477;32;40561;-74
2022/03/05 11:43:13;;;;;;;12.40;5.87;;;;;;;11.32;24.47;100146.84;7685256;32;37821;-75
2022/03/05 11:47:31;;;;;;;11.88;6.10;;;;;;;11.00;24.59;100147.81;7684157;32;37462;-74
2022/03/05 11:51:51;;;;;;;11.70;5.78;;;;;;;10.66;25.26;100148.19;7685498;32;39467;-73
2022/03/05 11:56:25;;;;;;;12.60;6.47;;;;;;;10.83;25.78;100134.38;7685383;32;40719;-73
2022/03/05 12:00:41;;;;;;;10.90;6.10;;;;;;;10.65;25.69;100143.00;7685241;32;38490;-74
2022/03/05 12:04:58;;;;;;;11.77;5.70;;;;;;;10.25;25.69;100134.25;7684972;32;37131;-75
2022/03/05 12:09:38;;;;;;;12.20;6.75;;;;;;;10.38;25.70;100129.47;7685017;32;39295;-74
2022/03/05 12:13:57;;;;;;;12.15;6.47;;;;;;;10.20;25.89;100130.69;7684915;32;40841;-73
2022/03/05 12:18:15;;;;;;;12.48;6.28;;;;;;;10.24;26.05;100126.34;7684882;32;38071;-74
2022/03/05 12:22:35;;;;;;;12.55;5.72;;;;;;;9.77;26.49;100125.94;7684974;32;37178;-75
2022/03/05 12:26:56;;;;;;;12.65;6.87;;;;;;;10.29;25.42;100119.00;7683985;32;39078;-74
2022/03/05 12:31:16;;;;;;;10.82;6.05;;;;;;;9.90;26.26;100126.59;7684542;32;39886;-74
2022/03/05 12:35:33;;;;;;;11.73;6.20;;;;;;;10.04;26.34;100122.37;7684783;32;37991;-73
2022/03/05 12:39:49;;;;;;;11.68;5.95;;;;;;;9.99;26.40;100119.63;7684685;32;36838;-74
2022/03/05 12:44:14;;;;;;;13.62;7.10;;;;;;;10.03;25.93;100120.72;7684499;32;40173;-74
2022/03/05 12:48:30;;;;;;;16.33;6.47;;;;;;;9.47;27.50;100122.94;7684265;32;41018;-74
2022/03/05 12:53:00;;;;;;;11.38;6.25;;;;;;;9.97;27.04;100110.88;7684486;32;39377;-74
2022/03/05 12:57:16;;;;;;;11.27;6.25;;;;;;;9.85;27.17;100115.66;7684790;32;35909;-73
2022/03/05 13:01:32;;;;;;;19.92;7.70;;;;;;;9.99;26.67;100103.28;7684343;32;40005;-72
2022/03/05 13:05:54;;;;;;;11.05;6.28;;;;;;;10.03;26.76;100109.03;7684074;32;39991;-74
2022/03/05 13:10:11;;;;;;;11.23;6.10;;;;;;;9.80;26.97;100116.47;7684165;32;38102;-74
2022/03/05 13:14:27;;;;;;;15.60;6.87;;;;;;;9.73;25.98;100115.84;7684144;32;37128;-74
2022/03/05 13:18:43;;;;;;;15.07;7.47;;;;;;;10.05;26.20;100110.38;7684060;32;40092;-74
2022/03/05 13:23:00;;;;;;;11.95;6.60;;;;;;;9.74;25.39;100112.88;7682740;32;39954;-74
2022/03/05 13:27:16;;;;;;;11.05;6.22;;;;;;;10.03;25.23;100106.28;7683623;32;38643;-74
2022/03/05 13:31:33;;;;;;;11.23;5.80;;;;;;;9.77;25.80;100117.78;7683263;32;37145;-73
2022/03/05 13:35:49;;;;;;;10.27;5.55;;;;;;;10.01;25.09;100106.56;7686858;32;39397;-74
2022/03/05 13:40:08;;;;;;;10.98;5.43;;;;;;;9.44;25.80;100112.56;7684587;32;40884;-74
2022/03/05 13:44:26;;;;;;;11.20;6.00;;;;;;;9.79;25.96;100109.34;7683713;32;38690;-74
2022/03/05 13:48:47;;;;;;;14.65;6.75;;;;;;;9.48;26.68;100108.25;7683380;32;37107;-74
2022/03/05 13:53:03;;;;;;;12.80;6.80;;;;;;;9.47;26.38;100107.44;7683241;32;40040;-74
2022/03/05 13:57:30;;;;;;;14.02;6.60;;;;;;;9.33;26.41;100104.31;7683441;32;39934;-72
2022/03/05 14:01:53;;;;;;;13.02;6.53;;;;;;;9.44;26.80;100104.41;7683536;32;37622;-71
2022/03/05 14:06:13;;;;;;;12.85;6.62;;;;;;;9.16;26.65;100106.28;7683304;32;37179;-74
2022/03/05 14:10:30;;;;;;;13.02;5.80;;;;;;;9.24;26.70;100103.09;7688348;32;39783;-75
2022/03/05 14:14:57;;;;;;;13.43;6.45;;;;;;;9.50;27.28;100109.66;7709762;32;40715;-75
2022/03/05 14:19:29;;;;;;;11.32;6.85;;;;;;;9.73;26.49;100094.87;7709590;32;38325;-75
2022/03/05 14:23:49;;;;;;;23.85;11.50;;;;;;;9.27;26.25;100105.31;7709466;32;37420;-75
2022/03/05 14:28:16;;;;;;;39.35;17.50;;;;;;;9.58;26.51;100094.75;7709324;32;40064;-75
2022/03/05 14:32:32;;;;;;;12.45;7.28;;;;;;;9.58;26.69;100092.03;7705689;32;39973;-75
2022/03/05 14:36:48;;;;;;;10.95;5.55;;;;;;;9.46;26.19;100086.72;7709065;32;38806;-74
2022/03/05 14:41:10;;;;;;;9.95;4.97;;;;;;;9.53;26.27;100095.50;7694486;32;37112;-75
2022/03/05 14:45:26;;;;;;;13.62;6.30;;;;;;;9.65;26.40;100083.66;7682496;32;40222;-75
2022/03/05 14:49:42;;;;;;;10.20;5.22;;;;;;;9.58;25.91;100092.84;7684878;32;38372;-73
2022/03/05 14:53:58;;;;;;;9.13;4.72;;;;;;;9.12;27.40;100094.25;7685905;32;39139;-74
2022/03/05 14:58:14;;;;;;;11.10;5.87;;;;;;;9.23;26.56;100100.63;7686061;32;37357;-74
2022/03/05 15:02:30;;;;;;;11.80;5.65;;;;;;;9.29;26.49;100100.44;7685979;32;39475;-75
2022/03/05 15:06:47;;;;;;;15.75;5.20;;;;;;;9.27;26.86;100094.44;7685872;32;39674;-74
2022/03/05 15:11:03;;;;;;;9.35;5.30;;;;;;;9.23;27.00;100090.59;7686536;32;37593;-75
2022/03/05 15:15:19;;;;;;;9.85;5.60;;;;;;;9.22;26.98;100088.94;7685876;32;36851;-74
2022/03/05 15:19:40;;;;;;;11.30;5.68;;;;;;;9.11;27.01;100089.91;7684694;32;40129;-75
2022/03/05 15:23:56;;;;;;;11.68;6.20;;;;;;;9.22;26.28;100088.94;7686561;32;40075;-75
2022/03/05 15:28:12;;;;;;;12.48;6.45;;;;;;;9.13;26.83;100095.91;7685610;32;39283;-74
2022/03/05 15:32:29;;;;;;;12.80;7.10;;;;;;;9.09;27.78;100086.59;7685724;32;38278;-75
2022/03/05 15:36:45;;;;;;;13.05;6.93;;;;;;;8.24;29.86;100101.25;7685710;32;39052;-75
2022/03/05 15:41:01;;;;;;;14.48;7.20;;;;;;;8.80;29.10;100100.41;7686322;32;39616;-74
2022/03/05 15:45:18;;;;;;;11.20;5.53;;;;;;;8.77;28.86;100099.00;7685320;32;38362;-75
2022/03/05 15:49:34;;;;;;;9.48;4.90;;;;;;;8.63;27.98;100098.56;7685241;32;37389;-74
2022/03/05 15:53:50;;;;;;;9.68;5.25;;;;;;;8.56;27.89;100097.91;7685398;32;39479;-75
2022/03/05 15:58:07;;;;;;;8.82;4.40;;;;;;;8.54;28.14;100100.06;7685279;32;41409;-75
2022/03/05 16:02:23;;;;;;;10.48;5.12;;;;;;;8.04;28.24;100101.75;7685295;32;37602;-74
2022/03/05 16:06:39;;;;;;;9.27;4.68;;;;;;;8.25;28.51;100107.50;7685322;32;37263;-74
2022/03/05 16:10:55;;;;;;;7.55;4.28;;;;;;;8.34;28.29;100106.00;7698747;32;40090;-74
2022/03/05 16:15:12;;;;;;;10.13;4.82;;;;;;;7.92;29.07;100108.31;7711893;32;39965;-74
2022/03/05 16:19:28;;;;;;;8.60;4.45;;;;;;;8.22;28.19;100110.72;7711660;32;38704;-75
2022/03/05 16:23:44;;;;;;;10.10;4.87;;;;;;;8.26;28.50;100114.56;7710279;32;37039;-74
2022/03/05 16:28:00;;;;;;;10.30;4.62;;;;;;;8.12;28.55;100115.97;7711528;32;40053;-74
2022/03/05 16:32:16;;;;;;;9.68;5.12;;;;;;;8.07;28.46;100119.44;7711583;32;40034;-75
2022/03/05 16:36:33;;;;;;;7.00;4.40;;;;;;;8.08;28.44;100118.37;7711578;32;38004;-75
2022/03/05 16:40:49;;;;;;;8.75;4.75;;;;;;;7.88;28.80;100124.28;7697886;32;37591;-75
2022/03/05 16:45:06;;;;;;;10.93;5.47;;;;;;;7.78;28.64;100134.97;7684781;32;38953;-78
2022/03/05 16:49:22;;;;;;;10.35;5.43;;;;;;;8.35;36.36;100134.00;7675080;32;308143;-73
2022/03/05 16:53:39;;;;;;;12.27;5.20;;;;;;;8.14;28.71;100135.56;7684635;32;37927;-75
2022/03/05 16:57:55;;;;;;;9.75;5.28;;;;;;;7.99;28.73;100136.16;7684562;32;37646;-75
2022/03/05 17:02:11;;;;;;;11.63;6.20;;;;;;;7.94;28.98;100144.22;7684551;32;39807;-74
2022/03/05 17:06:28;;;;;;;15.25;6.57;;;;;;;7.83;29.32;100149.47;7684581;32;40761;-75
2022/03/05 17:10:44;;;;;;;12.15;5.40;;;;;;;7.99;28.85;100141.59;7684451;32;38589;-73
2022/03/05 17:15:00;;;;;;;12.88;5.60;;;;;;;7.58;29.65;100160.66;7684247;32;37290;-74
2022/03/05 17:19:16;;;;;;;10.63;5.12;;;;;;;7.67;29.79;100161.09;7684282;32;40045;-74
2022/03/05 17:23:33;;;;;;;10.80;4.97;;;;;;;7.75;29.66;100159.91;7683999;32;40733;-76
2022/03/05 17:27:49;;;;;;;9.88;4.93;;;;;;;7.75;29.59;100168.03;7683761;32;38066;-75
2022/03/05 17:32:06;;;;;;;10.48;5.03;;;;;;;7.64;30.01;100161.56;7683796;32;37816;-75
2022/03/05 17:36:22;;;;;;;9.57;4.90;;;;;;;7.53;30.34;100171.44;7683827;32;40129;-75
2022/03/05 17:40:38;;;;;;;9.13;4.93;;;;;;;7.51;30.29;100177.09;7697357;32;40928;-75
2022/03/05 17:44:54;;;;;;;9.85;4.70;;;;;;;7.34;30.14;100184.34;7710093;32;38772;-75
2022/03/05 17:49:10;;;;;;;9.75;4.95;;;;;;;7.33;30.39;100180.00;7709889;32;37184;-74
2022/03/05 17:53:27;;;;;;;10.68;6.68;;;;;;;7.39;30.46;100186.34;7709891;32;40131;-75
2022/03/05 17:57:44;;;;;;;10.18;5.22;;;;;;;7.18;30.62;100185.13;7709867;32;39779;-74
2022/03/05 18:02:02;;;;;;;11.07;5.20;;;;;;;7.07;30.90;100192.19;7709539;32;38570;-74
2022/03/05 18:06:18;;;;;;;8.73;5.00;;;;;;;7.25;30.77;100194.75;7709104;32;36953;-74
2022/03/05 18:10:35;;;;;;;9.65;5.22;;;;;;;7.04;30.88;100196.22;7695362;32;40136;-76
2022/03/05 18:14:52;;;;;;;9.30;5.00;;;;;;;7.18;30.99;100191.34;7709406;32;40778;-75
2022/03/05 18:19:08;;;;;;;16.60;7.70;;;;;;;6.83;31.43;100188.69;7709252;32;37787;-75
2022/03/05 18:23:24;;;;;;;15.85;6.97;;;;;;;7.10;31.12;100189.00;7710716;32;37174;-75
2022/03/05 18:27:41;;;;;;;11.63;5.80;;;;;;;7.07;30.90;100187.62;7712716;32;39278;-74
2022/03/05 18:31:57;;;;;;;10.70;5.78;;;;;;;6.99;31.15;100193.41;7712743;32;40496;-74
2022/03/05 18:36:14;;;;;;;13.95;6.28;;;;;;;6.61;31.86;100202.03;7712843;32;38457;-75
2022/03/05 18:40:30;;;;;;;14.15;6.93;;;;;;;6.90;31.49;100200.25;7698790;32;37223;-76
2022/03/05 18:44:46;;;;;;;13.25;6.97;;;;;;;6.81;31.29;100209.78;7686093;32;39283;-74
2022/03/05 18:49:03;;;;;;;14.13;6.60;;;;;;;6.62;31.79;100204.47;7685587;32;40031;-74
2022/03/05 18:53:19;;;;;;;14.15;7.20;;;;;;;6.80;31.61;100214.41;7685822;32;37753;-75
2022/03/05 18:57:35;;;;;;;12.23;6.00;;;;;;;6.87;31.69;100217.00;7685920;32;37673;-74
2022/03/05 19:01:52;;;;;;;13.82;6.82;;;;;;;6.67;31.88;100217.34;7685886;32;39911;-75
2022/03/05 19:06:08;;;;;;;12.35;6.35;;;;;;;6.42;32.87;100220.28;7686508;32;39999;-76
2022/03/05 19:10:24;;;;;;;12.27;6.93;;;;;;;6.64;32.34;100220.50;7686088;32;38726;-74
2022/03/05 19:14:41;;;;;;;13.50;6.40;;;;;;;6.57;32.35;100226.03;7685639;32;37166;-73
2022/03/05 19:19:00;;;;;;;14.98;6.40;;;;;;;6.53;32.25;100220.25;7685579;32;39484;-73
2022/03/05 19:23:17;;;;;;;10.25;5.47;;;;;;;6.63;32.07;100235.12;7685524;32;41348;-73
2022/03/05 19:27:41;;;;;;;22.13;9.18;;;;;;;6.74;32.17;100243.28;7685387;32;38051;-73
2022/03/05 19:31:59;;;;;;;14.77;7.65;;;;;;;6.61;32.21;100248.91;7685546;32;36706;-73
2022/03/05 19:36:15;;;;;;;12.85;6.53;;;;;;;6.50;32.69;100255.97;7685190;32;39080;-74
2022/03/05 19:40:34;;;;;;;11.35;6.72;;;;;;;6.53;32.55;100255.47;7686076;32;39612;-74
2022/03/05 19:44:50;;;;;;;10.20;6.12;;;;;;;6.64;32.33;100261.16;7684059;32;38641;-73
2022/03/05 19:49:06;;;;;;;11.38;5.82;;;;;;;6.65;32.51;100269.03;7685026;32;37318;-72
2022/03/05 19:53:22;;;;;;;12.43;6.32;;;;;;;6.64;32.42;100261.16;7685229;32;40024;-72
2022/03/05 19:57:39;;;;;;;13.43;7.15;;;;;;;6.56;32.96;100257.72;7685234;32;40990;-74